Time;durP1;ratioP1;P1;durP2;ratioP2;P2;SDS_P1;SDS_P2;PMS_P1;PMS_P2;Temp;Humidity;BMP_temperature;BMP_pressure;BME280_temperature;BME280_humidity;BME280_pressure;Samples;Min_cycle;Max_cycle;Signal;HPM_P1;HPM_P2
2023/10/03 00:00:25;;;;;;;40.20;16.98;;;;;;;19.40;83.67;100959.03;5093155;28;20032;-61
2023/10/03 00:02:54;;;;;;;39.78;17.55;;;;;;;19.46;83.55;100953.53;5093207;28;20024;-63
2023/10/03 00:05:22;;;;;;;40.88;17.67;;;;;;;19.49;82.96;100946.31;5093059;28;20038;-62
2023/10/03 00:07:51;;;;;;;38.20;16.45;;;;;;;19.46;83.25;100940.13;5093028;28;20043;-63
2023/10/03 00:10:17;;;;;;;40.80;17.92;;;;;;;19.44;83.02;100928.56;5093193;28;20031;-62
2023/10/03 00:12:51;;;;;;;41.15;18.20;;;;;;;19.43;82.93;100930.34;5092738;28;20024;-62
2023/10/03 00:15:18;;;;;;;38.83;17.60;;;;;;;19.33;83.79;100926.16;5092953;28;20127;-62
2023/10/03 00:17:47;;;;;;;39.83;17.38;;;;;;;19.36;83.47;100928.75;5093221;28;20058;-61
2023/10/03 00:20:16;;;;;;;43.05;17.75;;;;;;;19.31;83.48;100927.09;5092994;28;20089;-61
2023/10/03 00:22:48;;;;;;;40.72;17.77;;;;;;;19.33;83.35;100922.59;5092877;28;20039;-62
2023/10/03 00:25:18;;;;;;;40.28;17.52;;;;;;;19.26;83.56;100913.81;5092730;28;20028;-61
2023/10/03 00:27:51;;;;;;;42.30;18.88;;;;;;;19.14;84.84;100916.78;5093120;28;20020;-61
2023/10/03 00:30:19;;;;;;;42.40;18.27;;;;;;;19.14;84.65;100914.09;5093065;28;20040;-62
2023/10/03 00:32:44;;;;;;;41.47;18.13;;;;;;;19.19;84.28;100913.09;5092784;28;20024;-61
2023/10/03 00:35:11;;;;;;;39.13;17.48;;;;;;;19.24;83.95;100911.19;5092844;28;20461;-62
2023/10/03 00:37:37;;;;;;;44.90;18.25;;;;;;;19.23;84.09;100901.38;5092841;28;20032;-61
2023/10/03 00:40:16;;;;;;;39.63;17.25;;;;;;;19.30;82.94;100901.22;5094918;28;20126;-63
2023/10/03 00:42:46;;;;;;;38.03;17.02;;;;;;;19.29;83.42;100894.97;5096787;28;20354;-61
2023/10/03 00:45:19;;;;;;;40.83;17.48;;;;;;;19.32;83.31;100894.91;5097005;28;20027;-62
2023/10/03 00:47:44;;;;;;;;;;;;;;;19.33;82.99;100890.44;5097228;28;20492;-61
2023/10/03 00:50:09;;;;;;;40.93;17.20;;;;;;;19.13;84.34;100873.03;5096657;28;19912;-62
2023/10/03 00:52:35;;;;;;;36.95;17.13;;;;;;;19.08;84.43;100866.91;5096710;28;20823;-62
2023/10/03 00:55:01;;;;;;;39.92;16.88;;;;;;;19.08;84.53;100866.03;5096616;28;20031;-61
2023/10/03 00:57:26;;;;;;;40.17;16.85;;;;;;;19.09;83.92;100852.59;5095499;28;20039;-61
2023/10/03 00:59:56;;;;;;;39.63;17.83;;;;;;;19.09;84.26;100844.56;5096767;28;20469;-60
2023/10/03 01:02:21;;;;;;;41.70;18.17;;;;;;;19.05;84.63;100840.19;5096482;28;20485;-62
2023/10/03 01:04:47;;;;;;;42.33;17.80;;;;;;;19.01;85.02;100833.16;5096321;28;20073;-61
2023/10/03 01:07:12;;;;;;;42.38;18.00;;;;;;;18.99;85.04;100825.16;5096371;28;20032;-61
2023/10/03 01:09:38;;;;;;;42.00;17.40;;;;;;;18.99;84.36;100811.78;5096525;28;20063;-64
2023/10/03 01:12:03;;;;;;;39.92;17.33;;;;;;;19.05;85.02;100810.72;5096066;28;20487;-62
2023/10/03 01:14:34;;;;;;;42.72;18.17;;;;;;;19.06;84.25;100803.56;5096078;28;20062;-62
2023/10/03 01:17:01;;;;;;;41.47;17.85;;;;;;;19.05;85.36;100812.53;5096449;28;20039;-63
2023/10/03 01:19:30;;;;;;;42.50;18.02;;;;;;;19.05;84.69;100801.81;5096134;28;20493;-62
2023/10/03 01:21:56;;;;;;;42.15;17.42;;;;;;;19.06;84.53;100791.09;5096100;28;20028;-62
2023/10/03 01:24:24;;;;;;;44.47;18.42;;;;;;;19.09;84.61;100804.38;5096031;28;20028;-63
2023/10/03 01:26:54;;;;;;;37.40;16.75;;;;;;;19.01;85.22;100798.34;5095886;28;20024;-62
2023/10/03 01:29:21;;;;;;;40.13;17.30;;;;;;;19.01;84.91;100801.00;5096042;28;20450;-61
2023/10/03 01:31:48;;;;;;;41.88;17.90;;;;;;;18.98;85.21;100785.91;5095852;28;20073;-62
2023/10/03 01:34:15;;;;;;;41.13;17.60;;;;;;;18.99;85.31;100786.81;5095904;28;20031;-62
2023/10/03 01:36:41;;;;;;;40.92;17.38;;;;;;;19.00;85.33;100786.75;5096135;28;20036;-63
2023/10/03 01:39:06;;;;;;;44.40;17.20;;;;;;;18.96;85.41;100787.75;5095664;28;20128;-61
2023/10/03 01:41:34;;;;;;;40.60;17.00;;;;;;;18.96;85.22;100784.19;5094170;28;20123;-61
2023/10/03 01:43:59;;;;;;;40.03;18.00;;;;;;;18.91;85.50;100778.06;5095516;28;20489;-61
2023/10/03 01:46:25;;;;;;;38.17;16.50;;;;;;;18.92;85.39;100772.66;5095495;28;20024;-61
2023/10/03 01:48:51;;;;;;;36.70;16.38;;;;;;;18.86;85.22;100750.53;5095504;28;20384;-62
2023/10/03 01:51:16;;;;;;;38.22;17.10;;;;;;;18.89;85.69;100759.38;5094985;28;20089;-61
2023/10/03 01:53:41;;;;;;;43.28;17.02;;;;;;;18.90;85.56;100769.16;5095535;28;20020;-62
2023/10/03 01:56:07;;;;;;;37.85;16.17;;;;;;;18.94;85.81;100775.31;5095353;28;20492;-63
2023/10/03 01:58:34;;;;;;;39.45;17.08;;;;;;;18.97;85.29;100768.09;5095370;28;20028;-62
2023/10/03 02:01:00;;;;;;;37.17;16.15;;;;;;;19.04;84.88;100763.44;5095245;28;20045;-62
2023/10/03 02:03:28;;;;;;;41.40;16.67;;;;;;;19.12;84.63;100761.47;5093998;28;20065;-63
2023/10/03 02:05:54;;;;;;;39.13;15.50;;;;;;;19.18;84.72;100760.41;5095187;28;20107;-60
2023/10/03 02:08:20;;;;;;;39.28;16.58;;;;;;;19.26;84.09;100761.97;5095084;28;20059;-62
2023/10/03 02:10:48;;;;;;;36.15;15.85;;;;;;;19.30;84.33;100752.06;5095114;28;20082;-62
2023/10/03 02:13:17;;;;;;;32.35;14.85;;;;;;;19.34;83.70;100753.72;5095020;28;20044;-61
2023/10/03 02:15:50;;;;;;;37.00;16.58;;;;;;;19.38;83.56;100750.06;5095030;28;20107;-61
2023/10/03 02:18:18;;;;;;;36.63;15.90;;;;;;;19.43;83.00;100742.75;5093965;28;20428;-64
2023/10/03 02:21:05;;;;;;;35.55;15.65;;;;;;;19.46;83.02;100744.50;5095103;28;20173;-61
2023/10/03 02:23:32;;;;;;;38.85;15.23;;;;;;;19.46;83.10;100747.16;5094747;28;20047;-61
2023/10/03 02:26:06;;;;;;;38.05;15.10;;;;;;;19.52;82.62;100742.50;5093568;28;20448;-62
2023/10/03 02:28:32;;;;;;;38.08;15.15;;;;;;;19.55;82.62;100728.16;5094875;28;20120;-62
2023/10/03 02:30:58;;;;;;;35.17;15.73;;;;;;;19.58;82.20;100716.47;5094734;28;20060;-62
2023/10/03 02:33:24;;;;;;;38.90;15.50;;;;;;;19.55;82.52;100724.59;5094778;28;20089;-62
2023/10/03 02:35:50;;;;;;;34.95;14.98;;;;;;;19.58;82.15;100738.78;5094892;28;20415;-61
2023/10/03 02:38:29;;;;;;;33.67;14.80;;;;;;;19.65;81.84;100737.72;5094531;28;20040;-62
2023/10/03 02:41:02;;;;;;;31.80;13.65;;;;;;;19.65;82.09;100737.72;5094563;28;20024;-61
2023/10/03 02:43:31;;;;;;;34.47;13.95;;;;;;;19.71;81.35;100750.09;5094732;28;20030;-62
2023/10/03 02:45:57;;;;;;;30.95;13.80;;;;;;;19.60;81.62;100725.34;5094624;28;20111;-62
2023/10/03 02:48:23;;;;;;;34.22;14.50;;;;;;;19.71;80.99;100742.03;5094424;28;20117;-62
2023/10/03 02:50:50;;;;;;;35.05;15.02;;;;;;;19.71;81.05;100734.88;5094350;28;20026;-61
2023/10/03 02:53:20;;;;;;;32.92;13.98;;;;;;;19.75;81.08;100746.41;5094607;28;20054;-61
2023/10/03 02:55:47;;;;;;;30.85;13.38;;;;;;;19.75;80.78;100743.72;5094481;28;20119;-62
2023/10/03 02:58:13;;;;;;;30.42;14.02;;;;;;;19.81;80.73;100746.19;5094206;28;20024;-62
2023/10/03 03:00:39;;;;;;;31.77;13.93;;;;;;;19.74;80.75;100750.88;5094051;28;20036;-62
2023/10/03 03:03:09;;;;;;;29.95;13.68;;;;;;;19.79;81.15;100760.59;5093283;28;20032;-63
2023/10/03 03:05:36;;;;;;;31.52;13.90;;;;;;;19.78;81.03;100759.69;5094222;28;20059;-62
2023/10/03 03:08:25;;;;;;;29.67;13.35;;;;;;;19.79;80.85;100757.91;5093995;28;20048;-62
2023/10/03 03:10:57;;;;;;;30.05;13.25;;;;;;;19.75;81.14;100763.34;5093564;28;20063;-61
2023/10/03 03:13:23;;;;;;;27.67;12.25;;;;;;;19.79;81.36;100755.22;5093886;28;20032;-61
2023/10/03 03:15:53;;;;;;;33.30;11.95;;;;;;;19.80;81.87;100754.31;5093855;28;20024;-61
2023/10/03 03:18:24;;;;;;;30.13;12.88;;;;;;;19.88;81.70;100758.53;5092817;28;20055;-61
2023/10/03 03:20:59;;;;;;;26.25;12.00;;;;;;;19.89;82.49;100762.94;5093979;28;20370;-62
2023/10/03 03:23:35;;;;;;;30.40;12.45;;;;;;;19.92;82.45;100752.16;5093869;28;20386;-61
2023/10/03 03:26:29;;;;;;;27.52;11.10;;;;;;;19.92;83.16;100745.91;5092370;28;20032;-62
2023/10/03 03:28:54;;;;;;;22.70;10.88;;;;;;;19.94;83.66;100754.78;5094139;28;20126;-63
2023/10/03 03:31:25;;;;;;;28.92;11.27;;;;;;;19.93;83.42;100742.28;5092349;28;20392;-62
2023/10/03 03:33:53;;;;;;;29.13;11.02;;;;;;;19.96;82.85;100744.88;5092743;28;20036;-62
2023/10/03 03:36:20;;;;;;;23.98;10.98;;;;;;;19.92;82.78;100746.78;5093798;28;20024;-61
2023/10/03 03:38:47;;;;;;;26.50;12.13;;;;;;;19.86;82.48;100741.56;5093270;28;20509;-61
2023/10/03 03:41:13;;;;;;;28.45;11.45;;;;;;;19.83;82.62;100743.47;5093117;28;20485;-62
2023/10/03 03:43:39;;;;;;;25.58;11.18;;;;;;;19.81;82.28;100746.19;5093384;28;20468;-61
2023/10/03 03:46:05;;;;;;;24.52;10.48;;;;;;;19.82;82.44;100736.34;5093237;28;20067;-62
2023/10/03 03:48:34;;;;;;;28.58;12.00;;;;;;;19.80;83.05;100741.78;5093362;28;20028;-63
2023/10/03 03:50:59;;;;;;;23.80;10.93;;;;;;;19.80;83.16;100749.81;5093561;28;20032;-62
2023/10/03 03:53:25;;;;;;;27.13;11.57;;;;;;;19.77;83.70;100749.91;5093315;28;20053;-63
2023/10/03 03:55:50;;;;;;;26.15;10.98;;;;;;;19.76;83.81;100746.34;5093274;28;20103;-62
2023/10/03 03:58:17;;;;;;;25.83;10.80;;;;;;;19.79;83.93;100753.44;5093475;28;20020;-62
2023/10/03 04:00:48;;;;;;;23.10;10.30;;;;;;;19.82;84.27;100752.44;5093219;28;20486;-62
2023/10/03 04:03:14;;;;;;;21.20;9.93;;;;;;;19.82;84.79;100760.47;5093334;28;20028;-62
2023/10/03 04:05:41;;;;;;;23.20;9.65;;;;;;;19.86;84.58;100763.03;5093321;28;20362;-63
2023/10/03 04:08:07;;;;;;;23.58;10.30;;;;;;;19.84;84.87;100759.53;5093355;28;20190;-63
2023/10/03 04:10:36;;;;;;;18.85;9.00;;;;;;;19.85;84.86;100769.31;5092915;28;20473;-61
2023/10/03 04:13:05;;;;;;;24.55;9.73;;;;;;;19.84;85.15;100766.69;5091315;28;20024;-61
2023/10/03 04:15:31;;;;;;;22.55;9.10;;;;;;;19.85;85.55;100769.31;5092980;28;20500;-62
2023/10/03 04:17:56;;;;;;;20.45;9.10;;;;;;;19.86;85.03;100779.13;5092984;28;20489;-62
2023/10/03 04:22:51;;;;;;;20.42;8.48;;;;;;;19.86;85.58;100784.47;5092925;28;20504;-62
2023/10/03 04:25:20;;;;;;;20.80;8.80;;;;;;;19.84;85.45;100789.03;5092865;28;20151;-62
2023/10/03 04:27:48;;;;;;;20.02;8.50;;;;;;;19.85;85.61;100789.91;5092688;28;20495;-62
2023/10/03 04:30:14;;;;;;;18.88;8.35;;;;;;;19.85;85.40;100792.59;5092939;28;20028;-61
2023/10/03 04:32:41;;;;;;;19.35;8.20;;;;;;;19.83;85.61;100800.69;5092852;28;20016;-61
2023/10/03 04:35:11;;;;;;;16.27;7.82;;;;;;;19.82;85.38;100795.34;5093071;28;20111;-63
2023/10/03 04:37:38;;;;;;;20.45;8.02;;;;;;;19.81;84.90;100797.16;5092760;28;20036;-62
2023/10/03 04:40:06;;;;;;;17.17;7.80;;;;;;;19.81;84.80;100801.63;5092540;28;20144;-62
2023/10/03 04:42:32;;;;;;;18.95;7.53;;;;;;;19.81;84.49;100802.50;5092508;28;20032;-62
2023/10/03 04:44:57;;;;;;;19.48;7.13;;;;;;;19.82;84.16;100808.75;5092731;28;20546;-61
2023/10/03 04:47:23;;;;;;;18.35;6.93;;;;;;;19.80;83.73;100808.81;5092664;28;20027;-62
2023/10/03 04:49:48;;;;;;;14.68;7.28;;;;;;;19.75;84.38;100808.94;5092655;28;20047;-61
2023/10/03 04:52:14;;;;;;;20.05;6.95;;;;;;;19.71;84.58;100819.78;5092575;28;20028;-62
2023/10/03 04:54:39;;;;;;;16.80;6.95;;;;;;;19.72;84.15;100832.25;5092565;28;20051;-62
2023/10/03 04:57:05;;;;;;;14.35;6.45;;;;;;;19.67;84.54;100821.66;5092340;28;20028;-62
2023/10/03 04:59:30;;;;;;;16.95;6.63;;;;;;;19.63;84.19;100833.41;5092717;28;20107;-62
2023/10/03 05:01:56;;;;;;;15.07;6.18;;;;;;;19.61;84.25;100829.84;5092501;28;20028;-61
2023/10/03 05:04:21;;;;;;;13.50;6.32;;;;;;;19.58;84.36;100834.41;5092500;28;20032;-62
2023/10/03 05:06:49;;;;;;;23.02;6.72;;;;;;;19.58;83.58;100824.56;5092417;28;20123;-62
2023/10/03 05:09:14;;;;;;;18.08;6.28;;;;;;;19.54;83.61;100820.22;5092403;28;20056;-62
2023/10/03 05:11:42;;;;;;;17.35;6.40;;;;;;;19.52;83.48;100822.91;5090902;28;20150;-62
2023/10/03 05:14:08;;;;;;;17.02;6.00;;;;;;;19.49;83.29;100854.31;5092357;28;20024;-60
2023/10/03 05:16:35;;;;;;;13.60;5.85;;;;;;;19.51;82.88;100872.09;5092449;28;20039;-62
2023/10/03 05:19:00;;;;;;;13.43;6.07;;;;;;;19.44;82.86;100886.59;5092745;28;20381;-62
2023/10/03 05:21:26;;;;;;;12.43;5.85;;;;;;;19.40;83.46;100884.00;5092454;28;20492;-62
2023/10/03 05:23:52;;;;;;;15.35;6.25;;;;;;;19.37;83.46;100893.00;5092411;28;20035;-63
2023/10/03 05:26:24;;;;;;;17.58;6.15;;;;;;;19.34;83.05;100876.13;5094823;28;20036;-62
2023/10/03 05:28:49;;;;;;;14.88;6.22;;;;;;;19.33;83.19;100875.25;5096273;28;20060;-64
2023/10/03 05:31:15;;;;;;;21.55;6.20;;;;;;;19.30;83.25;100864.59;5095994;28;20512;-61
2023/10/03 05:33:42;;;;;;;15.65;6.20;;;;;;;19.23;83.25;100837.09;5095864;28;20089;-62
2023/10/03 05:36:14;;;;;;;12.93;6.03;;;;;;;19.18;84.14;100852.38;5095818;28;20032;-63
2023/10/03 05:38:42;;;;;;;14.70;6.10;;;;;;;19.19;84.24;100874.72;5095635;28;20051;-61
2023/10/03 05:41:18;;;;;;;19.40;6.65;;;;;;;19.17;84.18;100849.75;5095745;28;20051;-62
2023/10/03 05:43:43;;;;;;;16.48;6.50;;;;;;;19.14;84.90;100863.19;5095723;28;20038;-62
2023/10/03 05:46:11;;;;;;;12.38;5.95;;;;;;;19.16;84.21;100870.28;5095432;28;20126;-64
2023/10/03 05:48:36;;;;;;;14.35;6.20;;;;;;;19.15;84.43;100873.91;5095674;28;20024;-63
2023/10/03 05:51:02;;;;;;;14.98;6.13;;;;;;;19.12;85.10;100865.03;5095492;28;20020;-61
2023/10/03 05:53:27;;;;;;;18.52;6.07;;;;;;;19.12;85.38;100863.25;5095653;28;20033;-62
2023/10/03 05:55:52;;;;;;;13.00;6.25;;;;;;;19.12;85.13;100857.00;5095069;28;20024;-62
2023/10/03 05:58:18;;;;;;;17.75;6.60;;;;;;;19.10;85.21;100864.19;5095065;28;20059;-61
2023/10/03 06:00:43;;;;;;;15.75;6.13;;;;;;;19.06;85.33;100858.06;5095128;28;20024;-63
2023/10/03 06:03:09;;;;;;;15.52;6.20;;;;;;;19.07;85.46;100865.16;5093701;28;20120;-63
2023/10/03 06:05:34;;;;;;;14.00;5.88;;;;;;;19.06;85.43;100879.47;5095169;28;20063;-63
2023/10/03 06:08:00;;;;;;;11.27;5.97;;;;;;;19.05;85.27;100875.00;5094751;28;20055;-64
2023/10/03 06:10:29;;;;;;;13.73;5.97;;;;;;;19.04;85.53;100886.66;5094989;28;20024;-62
2023/10/03 06:12:54;;;;;;;11.27;6.38;;;;;;;19.01;86.21;100878.69;5094313;28;20428;-63
2023/10/03 06:15:20;;;;;;;13.50;5.65;;;;;;;18.99;86.23;100877.84;5094612;28;20032;-61
2023/10/03 06:17:45;;;;;;;12.38;5.57;;;;;;;18.99;86.63;100875.16;5094434;28;20066;-63
2023/10/03 06:20:14;;;;;;;17.42;6.30;;;;;;;18.99;85.96;100881.41;5094521;28;20024;-63
2023/10/03 06:22:41;;;;;;;11.32;6.15;;;;;;;19.01;86.06;100892.06;5094379;28;20058;-63
2023/10/03 06:25:07;;;;;;;11.90;5.85;;;;;;;18.98;86.67;100897.53;5094615;28;20024;-62
2023/10/03 06:27:33;;;;;;;13.15;6.53;;;;;;;18.97;86.89;100893.97;5094200;28;20484;-62
2023/10/03 06:29:58;;;;;;;15.88;5.63;;;;;;;18.95;87.24;100902.94;5094272;28;20033;-62
2023/10/03 06:32:24;;;;;;;14.52;6.13;;;;;;;18.95;88.07;100909.16;5094258;28;20120;-63
2023/10/03 06:34:49;;;;;;;13.45;6.30;;;;;;;18.90;88.65;100908.41;5094009;28;20497;-63
2023/10/03 06:37:15;;;;;;;14.52;5.85;;;;;;;18.88;88.50;100910.22;5094149;28;20162;-62
2023/10/03 06:39:41;;;;;;;15.88;6.50;;;;;;;18.88;88.31;100914.69;5093784;28;20048;-63
2023/10/03 06:42:07;;;;;;;13.07;6.10;;;;;;;18.89;88.76;100927.19;5094066;28;20118;-62
2023/10/03 06:44:36;;;;;;;14.05;6.22;;;;;;;18.88;89.25;100917.38;5093956;28;20407;-62
2023/10/03 06:47:03;;;;;;;12.88;5.47;;;;;;;18.89;89.37;100924.50;5093987;28;20038;-62
2023/10/03 06:49:29;;;;;;;14.95;6.25;;;;;;;18.89;89.54;100930.75;5094243;28;20435;-62
2023/10/03 06:51:57;;;;;;;12.05;5.93;;;;;;;18.90;90.40;100936.97;5093935;28;20024;-62
2023/10/03 06:54:24;;;;;;;14.60;6.47;;;;;;;18.91;90.45;100946.75;5093870;28;20034;-63
2023/10/03 06:56:50;;;;;;;16.90;7.15;;;;;;;18.86;91.49;100937.97;5093783;28;20458;-62
2023/10/03 06:59:16;;;;;;;16.75;7.00;;;;;;;18.84;91.51;100948.69;5092435;28;20047;-63
2023/10/03 07:01:42;;;;;;;15.80;7.40;;;;;;;18.82;92.18;100961.22;5093698;28;20024;-62
2023/10/03 07:04:07;;;;;;;16.90;6.90;;;;;;;18.81;91.79;100951.44;5093626;28;20020;-62
2023/10/03 07:06:33;;;;;;;13.60;6.60;;;;;;;18.78;91.51;100948.81;5093492;28;20120;-61
2023/10/03 07:09:01;;;;;;;15.02;6.82;;;;;;;18.83;91.60;100959.44;5093507;28;20039;-62
2023/10/03 07:11:26;;;;;;;15.05;6.82;;;;;;;18.81;91.67;100967.50;5093182;28;20028;-62
2023/10/03 07:13:52;;;;;;;13.73;6.97;;;;;;;18.84;90.93;100956.72;5093820;28;20020;-61
2023/10/03 07:16:18;;;;;;;10.57;6.18;;;;;;;18.84;91.48;100964.75;5093449;28;20028;-61
2023/10/03 07:18:44;;;;;;;17.08;6.60;;;;;;;18.84;91.73;100970.09;5093769;28;20031;-61
2023/10/03 07:21:09;;;;;;;16.10;6.93;;;;;;;18.84;92.70;100961.19;5093334;28;20066;-61
2023/10/03 07:23:35;;;;;;;15.57;7.53;;;;;;;18.82;93.15;100966.59;5093517;28;20025;-62
2023/10/03 07:26:00;;;;;;;16.17;7.60;;;;;;;18.74;93.67;100949.81;5093143;28;20024;-62
2023/10/03 07:28:26;;;;;;;15.65;7.15;;;;;;;18.74;94.03;100964.06;5093285;28;20099;-62
2023/10/03 07:30:52;;;;;;;21.73;7.88;;;;;;;18.73;94.42;100967.66;5093340;28;20024;-61
2023/10/03 07:33:17;;;;;;;16.00;7.05;;;;;;;18.71;94.37;100968.59;5093489;28;20110;-61
2023/10/03 07:35:44;;;;;;;13.95;6.90;;;;;;;18.67;95.14;100961.50;5093210;28;20324;-62
2023/10/03 07:38:11;;;;;;;16.80;7.45;;;;;;;18.69;95.20;100959.69;5092900;28;20520;-61
2023/10/03 07:40:39;;;;;;;15.77;7.05;;;;;;;18.66;95.49;100984.72;5093028;28;20449;-62
2023/10/03 07:43:10;;;;;;;13.75;7.30;;;;;;;18.68;95.11;100974.88;5093075;28;20036;-62
2023/10/03 07:45:40;;;;;;;15.70;6.97;;;;;;;18.62;95.74;100977.66;5092987;28;20092;-61
2023/10/03 07:48:06;;;;;;;14.27;7.18;;;;;;;18.58;96.47;100983.13;5091169;28;20032;-61
2023/10/03 07:50:37;;;;;;;14.10;7.43;;;;;;;18.59;97.15;101004.50;5092980;28;20024;-61
2023/10/03 07:53:11;;;;;;;17.13;7.18;;;;;;;18.61;97.44;101008.03;5092854;28;20076;-60
2023/10/03 07:55:38;;;;;;;16.30;6.93;;;;;;;18.62;97.17;101017.81;5093234;28;20027;-61
2023/10/03 07:58:05;;;;;;;16.23;7.43;;;;;;;18.63;96.52;101016.00;5092973;28;20039;-61
2023/10/03 08:00:30;;;;;;;14.20;7.22;;;;;;;18.63;96.14;101016.00;5092819;28;20032;-60
2023/10/03 08:02:56;;;;;;;16.92;6.80;;;;;;;18.63;95.95;101011.56;5092951;28;20032;-62
2023/10/03 08:05:27;;;;;;;17.52;7.20;;;;;;;18.62;96.54;101000.88;5092932;28;20107;-62
2023/10/03 08:07:53;;;;;;;15.93;6.93;;;;;;;18.65;95.92;101016.88;5093006;28;20024;-61
2023/10/03 08:10:19;;;;;;;13.23;6.80;;;;;;;18.68;96.07;101019.50;5091384;28;20036;-61
2023/10/03 08:12:46;;;;;;;13.50;7.30;;;;;;;18.70;96.21;101040.00;5092697;28;20488;-62
2023/10/03 08:15:18;;;;;;;12.00;6.22;;;;;;;18.68;95.99;101062.34;5092669;28;20095;-61
2023/10/03 08:17:45;;;;;;;22.75;7.55;;;;;;;18.65;97.16;101073.97;5093067;28;20077;-62
2023/10/03 08:20:14;;;;;;;16.33;7.18;;;;;;;18.61;97.60;101042.81;5092562;28;20115;-61
2023/10/03 08:22:41;;;;;;;13.77;6.20;;;;;;;18.55;96.45;101072.41;5092642;28;20079;-61
2023/10/03 08:25:09;;;;;;;13.18;5.40;;;;;;;18.48;95.67;101079.63;5095210;28;20036;-62
2023/10/03 08:27:34;;;;;;;13.13;5.95;;;;;;;18.45;96.37;101094.84;5103289;28;20016;-62
2023/10/03 08:30:01;;;;;;;15.68;6.10;;;;;;;18.44;96.86;101088.63;5101334;28;20418;-62
2023/10/03 08:32:26;;;;;;;11.05;5.90;;;;;;;18.44;96.47;101080.59;5103690;28;20028;-63
2023/10/03 08:34:52;;;;;;;12.52;5.15;;;;;;;18.45;95.59;101098.41;5101261;28;20032;-62
2023/10/03 08:37:24;;;;;;;12.50;4.70;;;;;;;18.47;95.29;101101.09;5103180;28;20020;-62
2023/10/03 08:39:51;;;;;;;12.68;5.00;;;;;;;18.50;95.34;101101.91;5102504;28;20036;-62
2023/10/03 08:42:52;;;;;;;12.10;4.60;;;;;;;18.56;94.58;101089.34;5100507;28;20111;-62
2023/10/03 08:45:16;;;;;;;10.10;4.70;;;;;;;18.64;93.73;101106.13;5099895;28;20024;-63
2023/10/03 08:47:47;;;;;;;8.15;3.85;;;;;;;18.67;93.62;101108.72;5102559;28;20107;-62
2023/10/03 08:50:29;;;;;;;8.05;3.42;;;;;;;18.71;92.16;101124.78;5102883;28;20061;-62
2023/10/03 08:52:56;;;;;;;7.10;3.15;;;;;;;18.71;91.07;101134.56;5102244;28;20043;-63
2023/10/03 08:55:26;;;;;;;6.07;2.80;;;;;;;18.71;90.21;101140.84;5101184;28;20107;-62
2023/10/03 08:57:52;;;;;;;6.53;3.17;;;;;;;18.63;91.13;101140.06;5101090;28;20024;-61
2023/10/03 09:00:25;;;;;;;7.80;2.97;;;;;;;18.64;91.13;101141.81;5095831;28;20043;-61
2023/10/03 09:02:59;;;;;;;7.38;2.85;;;;;;;18.65;90.58;101146.25;5096521;28;20145;-61
2023/10/03 09:05:25;;;;;;;6.88;2.63;;;;;;;18.62;91.24;101151.66;5096259;28;20024;-62
2023/10/03 09:07:51;;;;;;;5.57;1.80;;;;;;;18.42;89.11;101170.75;5096437;28;20035;-62
2023/10/03 09:10:24;;;;;;;6.35;1.77;;;;;;;18.27;90.59;101182.56;5096300;28;20024;-61
2023/10/03 09:12:51;;;;;;;4.40;1.48;;;;;;;18.24;92.00;101181.72;5098442;28;20051;-61
2023/10/03 09:15:17;;;;;;;2.15;1.33;;;;;;;18.17;92.16;101183.63;5102127;28;20024;-60
2023/10/03 09:17:49;;;;;;;3.60;1.70;;;;;;;18.19;92.69;101187.13;5105553;28;20028;-62
2023/10/03 09:20:22;;;;;;;;;;;;;;;18.30;91.90;101195.00;5106939;28;20098;-61
2023/10/03 09:22:52;;;;;;;6.65;1.70;;;;;;;18.43;91.34;101201.94;5105871;28;19912;-60
2023/10/03 09:25:21;;;;;;;4.68;1.80;;;;;;;18.49;91.09;101217.88;5101969;28;20133;-61
2023/10/03 09:27:47;;;;;;;6.00;1.95;;;;;;;18.58;91.27;101224.88;5105024;28;20419;-62
2023/10/03 09:30:22;;;;;;;3.83;1.73;;;;;;;18.61;90.74;101230.19;5106918;28;20020;-61
2023/10/03 09:32:50;;;;;;;3.42;1.63;;;;;;;18.62;90.04;101244.44;5101904;28;20442;-61
2023/10/03 09:35:15;;;;;;;5.85;1.77;;;;;;;18.57;89.63;101233.81;5106350;28;20346;-62
2023/10/03 09:37:48;;;;;;;3.83;2.20;;;;;;;18.56;91.05;101252.59;5094092;28;20032;-62
2023/10/03 09:40:16;;;;;;;;;;;;;;;18.61;90.08;101246.25;5095774;28;20083;-61
2023/10/03 09:42:48;;;;;;;3.50;1.73;;;;;;;18.55;90.07;101249.03;5095093;28;19912;-61
2023/10/03 09:45:18;;;;;;;6.90;2.03;;;;;;;18.53;89.84;101249.03;5102344;28;20076;-61
2023/10/03 09:47:44;;;;;;;6.18;2.10;;;;;;;18.60;89.32;101243.59;5104745;28;20046;-61
2023/10/03 09:50:10;;;;;;;4.93;1.90;;;;;;;18.53;89.16;101245.47;5103990;28;20031;-62
2023/10/03 09:52:44;;;;;;;5.20;1.88;;;;;;;18.47;88.89;101238.44;5103308;28;20027;-62
2023/10/03 09:55:22;;;;;;;6.10;2.20;;;;;;;18.47;88.52;101254.50;5109346;28;20400;-62
2023/10/03 09:57:55;;;;;;;5.72;2.22;;;;;;;18.36;87.44;101256.44;5105445;28;20150;-63
2023/10/03 10:00:38;;;;;;;5.80;2.00;;;;;;;18.36;87.89;101258.25;5102907;28;20040;-61
2023/10/03 10:03:11;;;;;;;6.60;2.10;;;;;;;18.41;87.58;101269.75;5106469;28;20024;-61
2023/10/03 10:05:39;;;;;;;5.97;2.15;;;;;;;18.38;86.55;101275.16;5101644;28;20073;-62
2023/10/03 10:08:19;;;;;;;7.32;2.10;;;;;;;18.36;86.90;101277.84;5103932;28;20077;-61
2023/10/03 10:11:02;;;;;;;4.97;2.00;;;;;;;18.45;87.06;101298.22;5103513;28;20085;-61
2023/10/03 10:13:33;;;;;;;4.80;2.03;;;;;;;18.53;87.11;101302.56;5104322;28;20024;-60
2023/10/03 10:16:13;;;;;;;;;;;;;;;18.66;86.53;101287.19;5102760;28;20079;-61
2023/10/03 10:18:45;;;;;;;3.10;1.80;;;;;;;18.62;85.07;101295.31;5101716;28;19916;-61
2023/10/03 10:21:31;;;;;;;4.37;1.70;;;;;;;18.59;85.58;101317.66;5103161;28;20046;-61
2023/10/03 10:24:20;;;;;;;5.30;1.90;;;;;;;18.55;84.64;101323.97;5101082;28;20013;-62
2023/10/03 10:26:54;;;;;;;4.03;1.90;;;;;;;18.52;84.63;101332.03;5103940;28;20141;-62
2023/10/03 10:29:23;;;;;;;4.43;1.67;;;;;;;18.47;84.00;101331.22;5102075;28;20028;-60
2023/10/03 10:31:59;;;;;;;6.30;1.75;;;;;;;18.51;85.92;101338.31;5112551;28;20051;-62
2023/10/03 10:34:27;;;;;;;6.35;1.80;;;;;;;18.42;85.07;101339.31;5115127;28;20436;-62
2023/10/03 10:37:15;;;;;;;3.40;1.65;;;;;;;18.34;86.98;101343.00;5114885;27;20032;-62
2023/10/03 10:42:59;;;;;;;4.90;1.80;;;;;;;18.33;88.43;101349.25;5114564;28;20092;-63
2023/10/03 10:45:25;;;;;;;7.05;1.95;;;;;;;18.34;88.35;101351.91;5114551;28;20034;-61
2023/10/03 10:47:51;;;;;;;3.58;1.98;;;;;;;18.27;86.58;101369.81;5113299;28;20378;-62
2023/10/03 10:50:17;;;;;;;3.90;2.00;;;;;;;18.17;87.55;101372.66;5113708;28;20035;-62
2023/10/03 10:52:57;;;;;;;5.28;1.60;;;;;;;18.05;86.97;101373.66;5114832;28;20065;-63
2023/10/03 10:55:24;;;;;;;2.75;1.42;;;;;;;17.84;86.98;101377.47;5113216;28;20035;-62
2023/10/03 10:58:12;;;;;;;2.20;1.25;;;;;;;17.65;87.26;101378.53;5114483;28;20032;-62
2023/10/03 11:00:37;;;;;;;4.65;1.60;;;;;;;17.43;88.67;101381.41;5114782;28;20138;-62
2023/10/03 11:03:04;;;;;;;3.22;1.30;;;;;;;17.29;90.91;101383.28;5114333;28;20461;-62
2023/10/03 11:05:49;;;;;;;4.53;1.55;;;;;;;17.30;91.79;101387.75;5114508;28;20107;-63
2023/10/03 11:08:17;;;;;;;4.05;1.45;;;;;;;17.33;91.61;101398.41;5114283;27;20555;-62
2023/10/03 11:10:54;;;;;;;2.33;1.40;;;;;;;17.34;91.90;101402.84;5114202;28;20053;-62
2023/10/03 11:13:21;;;;;;;2.15;1.40;;;;;;;17.32;91.38;101406.44;5114158;28;20030;-62
2023/10/03 11:15:50;;;;;;;3.60;1.60;;;;;;;17.26;91.77;101418.06;5113229;28;20035;-63
2023/10/03 11:18:26;;;;;;;2.53;1.58;;;;;;;17.26;93.40;101424.28;5114201;28;20034;-63
2023/10/03 11:20:52;;;;;;;4.00;1.80;;;;;;;17.19;93.81;101424.34;5114058;28;20027;-62
2023/10/03 11:23:18;;;;;;;3.67;1.80;;;;;;;17.18;94.41;101425.25;5113282;28;20034;-61
2023/10/03 11:25:53;;;;;;;2.60;1.60;;;;;;;17.18;94.36;101396.75;5114251;28;20136;-62
2023/10/03 11:28:19;;;;;;;3.38;1.70;;;;;;;17.25;94.61;101403.78;5113736;28;20354;-62